sensor_id;sensor_type;location;lat;lon;timestamp;temperature;humidity
1355;DHT22;671;48.972;9.276;2022-10-16T00:01:29;17.00;99.90
1355;DHT22;671;48.972;9.276;2022-10-16T00:03:58;17.10;99.90
1355;DHT22;671;48.972;9.276;2022-10-16T00:06:25;17.10;99.90
1355;DHT22;671;48.972;9.276;2022-10-16T00:08:52;17.10;99.90
1355;DHT22;671;48.972;9.276;2022-10-16T00:11:22;17.20;99.90
1355;DHT22;671;48.972;9.276;2022-10-16T00:13:51;17.20;99.90
1355;DHT22;671;48.972;9.276;2022-10-16T00:16:18;17.20;99.90
1355;DHT22;671;48.972;9.276;2022-10-16T00:18:45;17.20;99.90
1355;DHT22;671;48.972;9.276;2022-10-16T00:21:17;17.30;99.90
1355;DHT22;671;48.972;9.276;2022-10-16T00:23:44;17.30;99.90
1355;DHT22;671;48.972;9.276;2022-10-16T00:26:14;17.30;99.90
1355;DHT22;671;48.972;9.276;2022-10-16T00:28:41;17.30;99.90
1355;DHT22;671;48.972;9.276;2022-10-16T00:31:09;17.30;99.90
1355;DHT22;671;48.972;9.276;2022-10-16T00:33:38;17.30;99.90
1355;DHT22;671;48.972;9.276;2022-10-16T00:36:06;17.30;99.90
1355;DHT22;671;48.972;9.276;2022-10-16T00:38:33;17.20;99.90
1355;DHT22;671;48.972;9.276;2022-10-16T00:41:00;17.20;99.90
1355;DHT22;671;48.972;9.276;2022-10-16T00:46:00;17.20;99.90
1355;DHT22;671;48.972;9.276;2022-10-16T00:48:27;17.30;99.90
1355;DHT22;671;48.972;9.276;2022-10-16T00:50:53;17.30;99.90
1355;DHT22;671;48.972;9.276;2022-10-16T00:53:21;17.30;99.90
1355;DHT22;671;48.972;9.276;2022-10-16T00:55:47;17.30;99.90
1355;DHT22;671;48.972;9.276;2022-10-16T00:58:14;17.30;99.90
1355;DHT22;671;48.972;9.276;2022-10-16T01:00:40;17.30;99.90
1355;DHT22;671;48.972;9.276;2022-10-16T01:08:39;17.30;99.90
1355;DHT22;671;48.972;9.276;2022-10-16T01:11:22;17.30;99.90
1355;DHT22;671;48.972;9.276;2022-10-16T01:13:55;17.30;99.90
1355;DHT22;671;48.972;9.276;2022-10-16T01:16:41;17.30;99.90
1355;DHT22;671;48.972;9.276;2022-10-16T01:19:16;17.30;99.90
1355;DHT22;671;48.972;9.276;2022-10-16T01:21:47;17.40;99.90
1355;DHT22;671;48.972;9.276;2022-10-16T01:24:25;17.40;99.90
1355;DHT22;671;48.972;9.276;2022-10-16T01:27:15;17.40;99.90
1355;DHT22;671;48.972;9.276;2022-10-16T01:30:10;17.30;99.90
1355;DHT22;671;48.972;9.276;2022-10-16T01:35:11;17.30;99.90
1355;DHT22;671;48.972;9.276;2022-10-16T01:37:48;17.30;99.90
1355;DHT22;671;48.972;9.276;2022-10-16T01:40:17;17.20;99.90
1355;DHT22;671;48.972;9.276;2022-10-16T01:42:59;17.20;99.90
1355;DHT22;671;48.972;9.276;2022-10-16T01:45:28;17.20;99.90
1355;DHT22;671;48.972;9.276;2022-10-16T01:47:55;17.30;99.90
1355;DHT22;671;48.972;9.276;2022-10-16T01:50:24;17.30;99.90
1355;DHT22;671;48.972;9.276;2022-10-16T01:52:53;17.30;99.90
1355;DHT22;671;48.972;9.276;2022-10-16T01:55:28;17.30;99.90
1355;DHT22;671;48.972;9.276;2022-10-16T01:57:57;17.30;99.90
1355;DHT22;671;48.972;9.276;2022-10-16T02:00:24;17.30;99.90
1355;DHT22;671;48.972;9.276;2022-10-16T02:02:53;17.30;99.90
1355;DHT22;671;48.972;9.276;2022-10-16T02:07:56;17.30;99.90
1355;DHT22;671;48.972;9.276;2022-10-16T02:10:24;17.20;99.90
1355;DHT22;671;48.972;9.276;2022-10-16T02:13:00;17.20;99.90
1355;DHT22;671;48.972;9.276;2022-10-16T02:15:28;17.20;99.90
1355;DHT22;671;48.972;9.276;2022-10-16T02:17:55;17.20;99.90
1355;DHT22;671;48.972;9.276;2022-10-16T02:20:25;17.20;99.90
1355;DHT22;671;48.972;9.276;2022-10-16T02:22:54;17.20;99.90
1355;DHT22;671;48.972;9.276;2022-10-16T02:25:25;17.30;99.90
1355;DHT22;671;48.972;9.276;2022-10-16T02:27:57;17.20;99.90
1355;DHT22;671;48.972;9.276;2022-10-16T02:30:51;17.20;99.90
1355;DHT22;671;48.972;9.276;2022-10-16T02:33:19;17.30;99.90
1355;DHT22;671;48.972;9.276;2022-10-16T02:35:48;17.30;99.90
1355;DHT22;671;48.972;9.276;2022-10-16T02:38:17;17.30;99.90
1355;DHT22;671;48.972;9.276;2022-10-16T02:40:44;17.30;99.90
1355;DHT22;671;48.972;9.276;2022-10-16T02:43:11;17.30;99.90
1355;DHT22;671;48.972;9.276;2022-10-16T02:45:38;17.30;99.90
1355;DHT22;671;48.972;9.276;2022-10-16T02:48:06;17.30;99.90
1355;DHT22;671;48.972;9.276;2022-10-16T02:50:32;17.30;99.90
1355;DHT22;671;48.972;9.276;2022-10-16T02:52:59;17.30;99.90
1355;DHT22;671;48.972;9.276;2022-10-16T02:55:25;17.30;99.90
1355;DHT22;671;48.972;9.276;2022-10-16T02:57:52;17.30;99.90
1355;DHT22;671;48.972;9.276;2022-10-16T03:00:18;17.20;99.90
1355;DHT22;671;48.972;9.276;2022-10-16T03:02:45;17.20;99.90
1355;DHT22;671;48.972;9.276;2022-10-16T03:05:13;17.20;99.90
1355;DHT22;671;48.972;9.276;2022-10-16T03:07:39;17.10;99.90
1355;DHT22;671;48.972;9.276;2022-10-16T03:10:05;17.10;99.90
1355;DHT22;671;48.972;9.276;2022-10-16T03:12:31;17.10;99.90
1355;DHT22;671;48.972;9.276;2022-10-16T03:14:57;17.10;99.90
1355;DHT22;671;48.972;9.276;2022-10-16T03:17:24;17.10;99.90
1355;DHT22;671;48.972;9.276;2022-10-16T03:19:51;17.10;99.90
1355;DHT22;671;48.972;9.276;2022-10-16T03:22:17;17.10;99.90
1355;DHT22;671;48.972;9.276;2022-10-16T03:24:44;17.10;99.90
1355;DHT22;671;48.972;9.276;2022-10-16T03:27:10;17.00;99.90
1355;DHT22;671;48.972;9.276;2022-10-16T03:29:37;17.00;99.90
1355;DHT22;671;48.972;9.276;2022-10-16T03:32:03;17.00;99.90
1355;DHT22;671;48.972;9.276;2022-10-16T03:34:30;16.90;99.90
1355;DHT22;671;48.972;9.276;2022-10-16T03:36:56;16.80;99.90
1355;DHT22;671;48.972;9.276;2022-10-16T03:39:22;16.80;99.90
1355;DHT22;671;48.972;9.276;2022-10-16T03:41:49;16.70;99.90
1355;DHT22;671;48.972;9.276;2022-10-16T03:44:16;16.70;99.90
1355;DHT22;671;48.972;9.276;2022-10-16T03:46:42;16.60;99.90
1355;DHT22;671;48.972;9.276;2022-10-16T03:49:09;16.60;99.90
1355;DHT22;671;48.972;9.276;2022-10-16T03:51:35;16.60;99.90
1355;DHT22;671;48.972;9.276;2022-10-16T03:54:02;16.60;99.90
1355;DHT22;671;48.972;9.276;2022-10-16T03:56:28;16.60;99.90
1355;DHT22;671;48.972;9.276;2022-10-16T03:58:54;16.50;99.90
1355;DHT22;671;48.972;9.276;2022-10-16T04:01:21;16.50;99.90
1355;DHT22;671;48.972;9.276;2022-10-16T04:03:47;16.50;99.90
1355;DHT22;671;48.972;9.276;2022-10-16T04:06:14;16.50;99.90
1355;DHT22;671;48.972;9.276;2022-10-16T04:08:43;16.40;99.90
1355;DHT22;671;48.972;9.276;2022-10-16T04:11:09;16.40;99.90
1355;DHT22;671;48.972;9.276;2022-10-16T04:13:36;16.40;99.90
1355;DHT22;671;48.972;9.276;2022-10-16T04:16:03;16.40;99.90
1355;DHT22;671;48.972;9.276;2022-10-16T04:18:29;16.40;99.90
1355;DHT22;671;48.972;9.276;2022-10-16T04:20:56;16.30;99.90
1355;DHT22;671;48.972;9.276;2022-10-16T04:23:22;16.30;99.90
1355;DHT22;671;48.972;9.276;2022-10-16T04:25:50;16.40;99.90
1355;DHT22;671;48.972;9.276;2022-10-16T04:28:16;16.30;99.90
1355;DHT22;671;48.972;9.276;2022-10-16T04:30:43;16.30;99.90
1355;DHT22;671;48.972;9.276;2022-10-16T04:33:09;16.40;99.90
1355;DHT22;671;48.972;9.276;2022-10-16T04:35:36;16.30;99.90
1355;DHT22;671;48.972;9.276;2022-10-16T04:38:02;16.30;99.90
1355;DHT22;671;48.972;9.276;2022-10-16T04:40:29;16.30;99.90
1355;DHT22;671;48.972;9.276;2022-10-16T04:42:59;16.30;99.90
1355;DHT22;671;48.972;9.276;2022-10-16T04:45:25;16.30;99.90
1355;DHT22;671;48.972;9.276;2022-10-16T04:47:52;16.40;99.90
1355;DHT22;671;48.972;9.276;2022-10-16T04:50:18;16.40;99.90
1355;DHT22;671;48.972;9.276;2022-10-16T04:52:45;16.40;99.90
1355;DHT22;671;48.972;9.276;2022-10-16T04:55:11;16.40;99.90
1355;DHT22;671;48.972;9.276;2022-10-16T04:57:38;16.40;99.90
1355;DHT22;671;48.972;9.276;2022-10-16T05:00:05;16.40;99.90
1355;DHT22;671;48.972;9.276;2022-10-16T05:02:32;16.40;99.90
1355;DHT22;671;48.972;9.276;2022-10-16T05:04:58;16.40;99.90
1355;DHT22;671;48.972;9.276;2022-10-16T05:07:25;16.40;99.90
1355;DHT22;671;48.972;9.276;2022-10-16T05:09:51;16.40;99.90
1355;DHT22;671;48.972;9.276;2022-10-16T05:12:17;16.40;99.90
1355;DHT22;671;48.972;9.276;2022-10-16T05:14:44;16.30;99.90
1355;DHT22;671;48.972;9.276;2022-10-16T05:17:10;16.30;99.90
1355;DHT22;671;48.972;9.276;2022-10-16T05:19:37;16.30;99.90
1355;DHT22;671;48.972;9.276;2022-10-16T05:22:03;16.30;99.90
1355;DHT22;671;48.972;9.276;2022-10-16T05:24:30;16.40;99.90
1355;DHT22;671;48.972;9.276;2022-10-16T05:26:56;16.30;99.90
1355;DHT22;671;48.972;9.276;2022-10-16T05:29:23;16.30;99.90
1355;DHT22;671;48.972;9.276;2022-10-16T05:31:51;16.30;99.90
1355;DHT22;671;48.972;9.276;2022-10-16T05:34:18;16.30;99.90
1355;DHT22;671;48.972;9.276;2022-10-16T05:36:45;16.30;99.90
1355;DHT22;671;48.972;9.276;2022-10-16T05:39:13;16.30;99.90
1355;DHT22;671;48.972;9.276;2022-10-16T05:41:39;16.30;99.90
1355;DHT22;671;48.972;9.276;2022-10-16T05:44:06;16.30;99.90
1355;DHT22;671;48.972;9.276;2022-10-16T05:46:33;16.30;99.90
1355;DHT22;671;48.972;9.276;2022-10-16T05:48:59;16.20;99.90
1355;DHT22;671;48.972;9.276;2022-10-16T05:51:26;16.20;99.90
1355;DHT22;671;48.972;9.276;2022-10-16T05:53:53;16.20;99.90
1355;DHT22;671;48.972;9.276;2022-10-16T05:56:19;16.20;99.90
1355;DHT22;671;48.972;9.276;2022-10-16T05:58:46;16.20;99.90
1355;DHT22;671;48.972;9.276;2022-10-16T06:01:14;16.20;99.90
1355;DHT22;671;48.972;9.276;2022-10-16T06:03:41;16.20;99.90
1355;DHT22;671;48.972;9.276;2022-10-16T06:06:16;16.20;99.90
1355;DHT22;671;48.972;9.276;2022-10-16T06:08:43;16.20;99.90
1355;DHT22;671;48.972;9.276;2022-10-16T06:11:14;16.20;99.90
1355;DHT22;671;48.972;9.276;2022-10-16T06:13:41;16.20;99.90
1355;DHT22;671;48.972;9.276;2022-10-16T06:16:10;16.20;99.90
1355;DHT22;671;48.972;9.276;2022-10-16T06:18:36;16.20;99.90
1355;DHT22;671;48.972;9.276;2022-10-16T06:21:08;16.20;99.90
1355;DHT22;671;48.972;9.276;2022-10-16T06:23:34;16.30;99.90
1355;DHT22;671;48.972;9.276;2022-10-16T06:26:09;16.20;99.90
1355;DHT22;671;48.972;9.276;2022-10-16T06:28:35;16.20;99.90
1355;DHT22;671;48.972;9.276;2022-10-16T06:31:03;16.30;99.90
1355;DHT22;671;48.972;9.276;2022-10-16T06:33:30;16.30;99.90
1355;DHT22;671;48.972;9.276;2022-10-16T06:36:04;16.40;99.90
1355;DHT22;671;48.972;9.276;2022-10-16T06:38:31;16.30;99.90
1355;DHT22;671;48.972;9.276;2022-10-16T06:40:58;16.40;99.90
1355;DHT22;671;48.972;9.276;2022-10-16T06:43:25;16.40;99.90
1355;DHT22;671;48.972;9.276;2022-10-16T06:45:54;16.40;99.90
1355;DHT22;671;48.972;9.276;2022-10-16T06:48:21;16.50;99.90
1355;DHT22;671;48.972;9.276;2022-10-16T06:51:00;16.50;99.90
1355;DHT22;671;48.972;9.276;2022-10-16T06:53:31;16.50;99.90
1355;DHT22;671;48.972;9.276;2022-10-16T06:55:58;16.60;99.90
1355;DHT22;671;48.972;9.276;2022-10-16T06:58:24;16.70;99.90
1355;DHT22;671;48.972;9.276;2022-10-16T07:00:55;16.80;99.90
1355;DHT22;671;48.972;9.276;2022-10-16T07:03:23;16.80;99.90
1355;DHT22;671;48.972;9.276;2022-10-16T07:05:49;16.90;99.90
1355;DHT22;671;48.972;9.276;2022-10-16T07:08:16;16.90;99.90
1355;DHT22;671;48.972;9.276;2022-10-16T07:10:42;16.90;99.90
1355;DHT22;671;48.972;9.276;2022-10-16T07:13:09;17.00;99.90
1355;DHT22;671;48.972;9.276;2022-10-16T07:15:39;17.00;99.90
1355;DHT22;671;48.972;9.276;2022-10-16T07:18:06;17.00;99.90
1355;DHT22;671;48.972;9.276;2022-10-16T07:20:33;17.10;99.90
1355;DHT22;671;48.972;9.276;2022-10-16T07:22:59;17.10;99.90
1355;DHT22;671;48.972;9.276;2022-10-16T07:25:26;17.10;99.90
1355;DHT22;671;48.972;9.276;2022-10-16T07:27:52;17.10;99.90
1355;DHT22;671;48.972;9.276;2022-10-16T07:30:21;17.10;99.90
1355;DHT22;671;48.972;9.276;2022-10-16T07:32:47;17.10;99.90
1355;DHT22;671;48.972;9.276;2022-10-16T07:35:14;17.10;99.90
1355;DHT22;671;48.972;9.276;2022-10-16T07:37:44;17.10;99.90
1355;DHT22;671;48.972;9.276;2022-10-16T07:40:11;17.10;99.90
1355;DHT22;671;48.972;9.276;2022-10-16T07:42:38;17.10;99.90
1355;DHT22;671;48.972;9.276;2022-10-16T07:45:05;17.10;99.90
1355;DHT22;671;48.972;9.276;2022-10-16T07:47:32;17.10;99.90
1355;DHT22;671;48.972;9.276;2022-10-16T07:49:58;17.10;99.90
1355;DHT22;671;48.972;9.276;2022-10-16T07:52:24;17.00;99.90
1355;DHT22;671;48.972;9.276;2022-10-16T07:54:51;17.10;99.90
1355;DHT22;671;48.972;9.276;2022-10-16T07:57:17;17.10;99.90
1355;DHT22;671;48.972;9.276;2022-10-16T07:59:46;17.10;99.90
1355;DHT22;671;48.972;9.276;2022-10-16T08:02:12;17.10;99.90
1355;DHT22;671;48.972;9.276;2022-10-16T08:04:39;17.10;99.90
1355;DHT22;671;48.972;9.276;2022-10-16T08:07:07;17.20;99.90
1355;DHT22;671;48.972;9.276;2022-10-16T08:09:34;17.30;99.90
1355;DHT22;671;48.972;9.276;2022-10-16T08:12:01;17.40;99.90
1355;DHT22;671;48.972;9.276;2022-10-16T08:14:28;17.50;99.90
1355;DHT22;671;48.972;9.276;2022-10-16T08:16:55;17.70;99.90
1355;DHT22;671;48.972;9.276;2022-10-16T08:19:21;17.80;99.90
1355;DHT22;671;48.972;9.276;2022-10-16T08:21:48;17.90;99.90
1355;DHT22;671;48.972;9.276;2022-10-16T08:24:14;18.00;99.90
1355;DHT22;671;48.972;9.276;2022-10-16T08:26:41;18.20;99.90
1355;DHT22;671;48.972;9.276;2022-10-16T08:29:07;18.50;99.90
1355;DHT22;671;48.972;9.276;2022-10-16T08:31:34;18.70;99.90
1355;DHT22;671;48.972;9.276;2022-10-16T08:34:00;18.80;99.90
1355;DHT22;671;48.972;9.276;2022-10-16T08:36:26;18.90;99.90
1355;DHT22;671;48.972;9.276;2022-10-16T08:38:53;19.00;99.90
1355;DHT22;671;48.972;9.276;2022-10-16T08:41:36;19.20;99.90
1355;DHT22;671;48.972;9.276;2022-10-16T08:49:33;19.60;99.90
1355;DHT22;671;48.972;9.276;2022-10-16T08:52:00;19.70;99.90
1355;DHT22;671;48.972;9.276;2022-10-16T08:54:34;19.80;99.90
1355;DHT22;671;48.972;9.276;2022-10-16T08:57:14;19.90;99.90
1355;DHT22;671;48.972;9.276;2022-10-16T08:59:42;19.90;99.90
1355;DHT22;671;48.972;9.276;2022-10-16T09:02:32;20.00;99.90
1355;DHT22;671;48.972;9.276;2022-10-16T09:07:54;20.00;99.90
1355;DHT22;671;48.972;9.276;2022-10-16T09:10:38;20.00;99.90
1355;DHT22;671;48.972;9.276;2022-10-16T09:18:41;20.00;99.90
1355;DHT22;671;48.972;9.276;2022-10-16T09:21:30;20.00;99.90
1355;DHT22;671;48.972;9.276;2022-10-16T09:24:12;20.00;99.90
1355;DHT22;671;48.972;9.276;2022-10-16T09:26:39;20.10;99.90
1355;DHT22;671;48.972;9.276;2022-10-16T09:29:06;20.20;99.90
1355;DHT22;671;48.972;9.276;2022-10-16T09:31:36;20.30;99.90
1355;DHT22;671;48.972;9.276;2022-10-16T09:34:04;20.40;99.90
1355;DHT22;671;48.972;9.276;2022-10-16T09:36:51;20.60;99.90
1355;DHT22;671;48.972;9.276;2022-10-16T09:39:17;20.80;99.90
1355;DHT22;671;48.972;9.276;2022-10-16T09:41:45;20.90;99.90
1355;DHT22;671;48.972;9.276;2022-10-16T09:44:30;21.00;99.90
1355;DHT22;671;48.972;9.276;2022-10-16T09:47:18;21.10;99.90
1355;DHT22;671;48.972;9.276;2022-10-16T09:49:56;21.10;99.90
1355;DHT22;671;48.972;9.276;2022-10-16T09:52:24;21.10;99.90
1355;DHT22;671;48.972;9.276;2022-10-16T09:54:52;21.10;99.90
1355;DHT22;671;48.972;9.276;2022-10-16T09:57:19;21.00;99.90
1355;DHT22;671;48.972;9.276;2022-10-16T09:59:52;21.00;99.90
1355;DHT22;671;48.972;9.276;2022-10-16T10:02:39;21.10;99.90
1355;DHT22;671;48.972;9.276;2022-10-16T10:05:26;21.20;99.90
1355;DHT22;671;48.972;9.276;2022-10-16T10:07:58;21.40;99.90
1355;DHT22;671;48.972;9.276;2022-10-16T10:10:28;21.50;99.90
1355;DHT22;671;48.972;9.276;2022-10-16T10:12:55;21.50;99.90
1355;DHT22;671;48.972;9.276;2022-10-16T10:15:23;21.50;99.90
1355;DHT22;671;48.972;9.276;2022-10-16T10:17:52;21.40;99.90
1355;DHT22;671;48.972;9.276;2022-10-16T10:20:29;21.40;99.90
1355;DHT22;671;48.972;9.276;2022-10-16T10:22:57;21.40;99.90
1355;DHT22;671;48.972;9.276;2022-10-16T10:25:49;21.50;99.90
1355;DHT22;671;48.972;9.276;2022-10-16T10:31:09;21.70;99.90
1355;DHT22;671;48.972;9.276;2022-10-16T10:36:40;21.80;99.90
1355;DHT22;671;48.972;9.276;2022-10-16T10:39:27;22.00;99.90
1355;DHT22;671;48.972;9.276;2022-10-16T10:50:22;22.60;99.90
1355;DHT22;671;48.972;9.276;2022-10-16T10:55:36;22.70;99.90
1355;DHT22;671;48.972;9.276;2022-10-16T11:06:15;23.00;99.90
1355;DHT22;671;48.972;9.276;2022-10-16T11:08:49;23.10;99.90
1355;DHT22;671;48.972;9.276;2022-10-16T11:11:36;23.30;99.90
1355;DHT22;671;48.972;9.276;2022-10-16T11:14:31;23.40;99.90
1355;DHT22;671;48.972;9.276;2022-10-16T11:17:39;23.50;99.90
1355;DHT22;671;48.972;9.276;2022-10-16T11:22:51;23.70;99.90
1355;DHT22;671;48.972;9.276;2022-10-16T11:28:20;23.60;99.90
1355;DHT22;671;48.972;9.276;2022-10-16T11:31:13;23.50;99.90
1355;DHT22;671;48.972;9.276;2022-10-16T11:33:51;23.50;99.90
1355;DHT22;671;48.972;9.276;2022-10-16T11:36:40;23.40;99.90
1355;DHT22;671;48.972;9.276;2022-10-16T11:41:57;23.20;99.90
1355;DHT22;671;48.972;9.276;2022-10-16T11:47:19;23.20;99.90
1355;DHT22;671;48.972;9.276;2022-10-16T11:49:55;23.20;99.90
1355;DHT22;671;48.972;9.276;2022-10-16T11:57:43;23.50;99.90
1355;DHT22;671;48.972;9.276;2022-10-16T12:00:33;23.50;99.90
1355;DHT22;671;48.972;9.276;2022-10-16T12:03:22;23.70;99.90
1355;DHT22;671;48.972;9.276;2022-10-16T12:06:00;23.90;99.90
1355;DHT22;671;48.972;9.276;2022-10-16T12:08:29;24.10;99.90
1355;DHT22;671;48.972;9.276;2022-10-16T12:11:07;24.20;99.90
1355;DHT22;671;48.972;9.276;2022-10-16T12:13:38;24.30;99.90
1355;DHT22;671;48.972;9.276;2022-10-16T12:16:27;24.40;99.90
1355;DHT22;671;48.972;9.276;2022-10-16T12:19:11;24.60;99.90
1355;DHT22;671;48.972;9.276;2022-10-16T12:21:38;24.70;99.90
1355;DHT22;671;48.972;9.276;2022-10-16T12:24:05;24.70;99.90
1355;DHT22;671;48.972;9.276;2022-10-16T12:26:33;24.70;99.90
1355;DHT22;671;48.972;9.276;2022-10-16T12:29:59;24.60;99.90
1355;DHT22;671;48.972;9.276;2022-10-16T12:32:00;24.60;99.90
1355;DHT22;671;48.972;9.276;2022-10-16T12:34:40;24.50;99.90
1355;DHT22;671;48.972;9.276;2022-10-16T12:37:11;24.50;99.90
1355;DHT22;671;48.972;9.276;2022-10-16T12:39:39;24.40;99.90
1355;DHT22;671;48.972;9.276;2022-10-16T12:42:21;24.50;99.90
1355;DHT22;671;48.972;9.276;2022-10-16T12:44:48;24.50;99.90
1355;DHT22;671;48.972;9.276;2022-10-16T12:47:48;24.40;99.90
1355;DHT22;671;48.972;9.276;2022-10-16T12:50:34;24.30;99.90
1355;DHT22;671;48.972;9.276;2022-10-16T12:53:02;24.30;99.90
1355;DHT22;671;48.972;9.276;2022-10-16T12:55:42;24.20;99.90
1355;DHT22;671;48.972;9.276;2022-10-16T13:19:48;24.50;99.90
1355;DHT22;671;48.972;9.276;2022-10-16T13:28:07;24.50;99.90
1355;DHT22;671;48.972;9.276;2022-10-16T13:33:14;24.50;99.90
1355;DHT22;671;48.972;9.276;2022-10-16T13:36:24;24.40;99.90
1355;DHT22;671;48.972;9.276;2022-10-16T13:41:40;24.20;99.90
1355;DHT22;671;48.972;9.276;2022-10-16T13:44:18;24.10;99.90
1355;DHT22;671;48.972;9.276;2022-10-16T13:46:45;24.10;99.90
1355;DHT22;671;48.972;9.276;2022-10-16T13:49:16;24.10;99.90
1355;DHT22;671;48.972;9.276;2022-10-16T13:51:57;24.10;99.90
1355;DHT22;671;48.972;9.276;2022-10-16T13:54:25;24.30;99.90
1355;DHT22;671;48.972;9.276;2022-10-16T13:56:53;24.40;99.90
1355;DHT22;671;48.972;9.276;2022-10-16T13:59:33;24.40;99.90
1355;DHT22;671;48.972;9.276;2022-10-16T14:02:08;24.30;99.90
1355;DHT22;671;48.972;9.276;2022-10-16T14:04:41;24.40;99.90
1355;DHT22;671;48.972;9.276;2022-10-16T14:07:14;24.50;99.90
1355;DHT22;671;48.972;9.276;2022-10-16T14:09:41;24.70;99.90
1355;DHT22;671;48.972;9.276;2022-10-16T14:12:10;24.90;99.90
1355;DHT22;671;48.972;9.276;2022-10-16T14:14:47;24.90;99.90
1355;DHT22;671;48.972;9.276;2022-10-16T14:17:19;24.90;99.90
1355;DHT22;671;48.972;9.276;2022-10-16T14:19:47;24.80;99.90
1355;DHT22;671;48.972;9.276;2022-10-16T14:22:38;24.70;99.90
1355;DHT22;671;48.972;9.276;2022-10-16T14:27:56;24.50;99.90
1355;DHT22;671;48.972;9.276;2022-10-16T14:30:23;24.40;99.90
1355;DHT22;671;48.972;9.276;2022-10-16T14:33:00;24.40;99.90
1355;DHT22;671;48.972;9.276;2022-10-16T14:35:30;24.30;99.90
1355;DHT22;671;48.972;9.276;2022-10-16T14:37:59;24.30;99.90
1355;DHT22;671;48.972;9.276;2022-10-16T14:40:29;24.30;99.90
1355;DHT22;671;48.972;9.276;2022-10-16T14:42:56;24.20;99.90
1355;DHT22;671;48.972;9.276;2022-10-16T14:45:26;24.20;99.90
1355;DHT22;671;48.972;9.276;2022-10-16T14:48:01;24.10;99.90
1355;DHT22;671;48.972;9.276;2022-10-16T14:50:29;24.10;99.90
1355;DHT22;671;48.972;9.276;2022-10-16T14:52:56;24.10;99.90
1355;DHT22;671;48.972;9.276;2022-10-16T14:55:22;24.10;99.90
1355;DHT22;671;48.972;9.276;2022-10-16T14:57:49;24.00;99.90
1355;DHT22;671;48.972;9.276;2022-10-16T15:00:19;24.00;99.90
1355;DHT22;671;48.972;9.276;2022-10-16T15:02:46;24.00;99.90
1355;DHT22;671;48.972;9.276;2022-10-16T15:05:18;24.00;99.90
1355;DHT22;671;48.972;9.276;2022-10-16T15:07:45;24.00;99.90
1355;DHT22;671;48.972;9.276;2022-10-16T15:10:13;24.00;99.90
1355;DHT22;671;48.972;9.276;2022-10-16T15:12:40;23.80;99.90
1355;DHT22;671;48.972;9.276;2022-10-16T15:17:54;23.80;99.90
1355;DHT22;671;48.972;9.276;2022-10-16T15:20:33;23.80;99.90
1355;DHT22;671;48.972;9.276;2022-10-16T15:23:09;23.80;99.90
1355;DHT22;671;48.972;9.276;2022-10-16T15:25:45;23.70;99.90
1355;DHT22;671;48.972;9.276;2022-10-16T15:28:13;23.70;99.90
1355;DHT22;671;48.972;9.276;2022-10-16T15:30:40;23.60;99.90
1355;DHT22;671;48.972;9.276;2022-10-16T15:33:19;23.50;99.90
1355;DHT22;671;48.972;9.276;2022-10-16T15:35:50;23.40;99.90
1355;DHT22;671;48.972;9.276;2022-10-16T15:38:19;23.30;99.90
1355;DHT22;671;48.972;9.276;2022-10-16T15:40:47;23.20;99.90
1355;DHT22;671;48.972;9.276;2022-10-16T15:43:14;23.10;99.90
1355;DHT22;671;48.972;9.276;2022-10-16T15:45:40;23.00;99.90
1355;DHT22;671;48.972;9.276;2022-10-16T15:48:11;22.90;99.90
1355;DHT22;671;48.972;9.276;2022-10-16T15:50:39;22.80;99.90
1355;DHT22;671;48.972;9.276;2022-10-16T15:53:05;22.80;99.90
1355;DHT22;671;48.972;9.276;2022-10-16T15:55:33;22.80;99.90
1355;DHT22;671;48.972;9.276;2022-10-16T15:58:00;22.80;99.90
1355;DHT22;671;48.972;9.276;2022-10-16T16:00:26;22.80;99.90
1355;DHT22;671;48.972;9.276;2022-10-16T16:02:53;22.80;99.90
1355;DHT22;671;48.972;9.276;2022-10-16T16:05:21;22.70;99.90
1355;DHT22;671;48.972;9.276;2022-10-16T16:07:48;22.70;99.90
1355;DHT22;671;48.972;9.276;2022-10-16T16:10:15;22.70;99.90
1355;DHT22;671;48.972;9.276;2022-10-16T16:12:41;22.60;99.90
1355;DHT22;671;48.972;9.276;2022-10-16T16:15:09;22.50;99.90
1355;DHT22;671;48.972;9.276;2022-10-16T16:17:36;22.40;99.90
1355;DHT22;671;48.972;9.276;2022-10-16T16:20:04;22.30;99.90
1355;DHT22;671;48.972;9.276;2022-10-16T16:22:31;22.20;99.90
1355;DHT22;671;48.972;9.276;2022-10-16T16:24:57;22.10;99.90
1355;DHT22;671;48.972;9.276;2022-10-16T16:27:24;21.90;99.90
1355;DHT22;671;48.972;9.276;2022-10-16T16:29:55;21.90;99.90
1355;DHT22;671;48.972;9.276;2022-10-16T16:32:22;21.80;99.90
1355;DHT22;671;48.972;9.276;2022-10-16T16:34:48;21.70;99.90
1355;DHT22;671;48.972;9.276;2022-10-16T16:37:15;21.60;99.90
1355;DHT22;671;48.972;9.276;2022-10-16T16:39:41;21.50;99.90
1355;DHT22;671;48.972;9.276;2022-10-16T16:42:08;21.50;99.90
1355;DHT22;671;48.972;9.276;2022-10-16T16:44:36;21.40;99.90
1355;DHT22;671;48.972;9.276;2022-10-16T16:47:04;21.30;99.90
1355;DHT22;671;48.972;9.276;2022-10-16T16:49:31;21.30;99.90
1355;DHT22;671;48.972;9.276;2022-10-16T16:51:58;21.30;99.90
1355;DHT22;671;48.972;9.276;2022-10-16T16:54:24;21.20;99.90
1355;DHT22;671;48.972;9.276;2022-10-16T16:56:51;21.10;99.90
1355;DHT22;671;48.972;9.276;2022-10-16T16:59:19;21.10;99.90
1355;DHT22;671;48.972;9.276;2022-10-16T17:01:46;21.00;99.90
1355;DHT22;671;48.972;9.276;2022-10-16T17:04:13;20.90;99.90
1355;DHT22;671;48.972;9.276;2022-10-16T17:06:41;20.80;99.90
1355;DHT22;671;48.972;9.276;2022-10-16T17:09:08;20.80;99.90
1355;DHT22;671;48.972;9.276;2022-10-16T17:11:35;20.70;99.90
1355;DHT22;671;48.972;9.276;2022-10-16T17:14:02;20.60;99.90
1355;DHT22;671;48.972;9.276;2022-10-16T17:16:34;20.50;99.90
1355;DHT22;671;48.972;9.276;2022-10-16T17:19:03;20.40;99.90
1355;DHT22;671;48.972;9.276;2022-10-16T17:21:29;20.30;99.90
1355;DHT22;671;48.972;9.276;2022-10-16T17:23:58;20.30;99.90
1355;DHT22;671;48.972;9.276;2022-10-16T17:26:25;20.20;99.90
1355;DHT22;671;48.972;9.276;2022-10-16T17:28:53;20.10;99.90
1355;DHT22;671;48.972;9.276;2022-10-16T17:31:23;20.10;99.90
1355;DHT22;671;48.972;9.276;2022-10-16T17:33:50;19.90;99.90
1355;DHT22;671;48.972;9.276;2022-10-16T17:36:18;19.90;99.90
1355;DHT22;671;48.972;9.276;2022-10-16T17:38:45;19.80;99.90
1355;DHT22;671;48.972;9.276;2022-10-16T17:41:21;19.80;99.90
1355;DHT22;671;48.972;9.276;2022-10-16T17:43:49;19.70;99.90
1355;DHT22;671;48.972;9.276;2022-10-16T17:46:20;19.70;99.90
1355;DHT22;671;48.972;9.276;2022-10-16T17:48:49;19.60;99.90
1355;DHT22;671;48.972;9.276;2022-10-16T17:51:18;19.60;99.90
1355;DHT22;671;48.972;9.276;2022-10-16T17:53:49;19.50;99.90
1355;DHT22;671;48.972;9.276;2022-10-16T17:56:17;19.40;99.90
1355;DHT22;671;48.972;9.276;2022-10-16T17:58:46;19.40;99.90
1355;DHT22;671;48.972;9.276;2022-10-16T18:01:28;19.40;99.90
1355;DHT22;671;48.972;9.276;2022-10-16T18:04:00;19.30;99.90
1355;DHT22;671;48.972;9.276;2022-10-16T18:06:27;19.20;99.90
1355;DHT22;671;48.972;9.276;2022-10-16T18:08:57;19.20;99.90
1355;DHT22;671;48.972;9.276;2022-10-16T18:11:24;19.10;99.90
1355;DHT22;671;48.972;9.276;2022-10-16T18:13:55;19.10;99.90
1355;DHT22;671;48.972;9.276;2022-10-16T18:16:23;19.10;99.90
1355;DHT22;671;48.972;9.276;2022-10-16T18:18:50;19.00;99.90
1355;DHT22;671;48.972;9.276;2022-10-16T18:21:18;19.00;99.90
1355;DHT22;671;48.972;9.276;2022-10-16T18:23:46;19.00;99.90